sensor_id;sensor_type;location;lat;lon;timestamp;P1;durP1;ratioP1;P2;durP2;ratioP2
11604;SDS011;5858;43.076;25.626;2024-01-07T00:00:42;5.27;;;3.27;;
11604;SDS011;5858;43.076;25.626;2024-01-07T00:03:09;7.77;;;4.00;;
11604;SDS011;5858;43.076;25.626;2024-01-07T00:05:39;5.87;;;4.13;;
11604;SDS011;5858;43.076;25.626;2024-01-07T00:08:06;5.63;;;3.60;;
11604;SDS011;5858;43.076;25.626;2024-01-07T00:10:33;6.33;;;3.67;;
11604;SDS011;5858;43.076;25.626;2024-01-07T00:13:01;8.93;;;4.20;;
11604;SDS011;5858;43.076;25.626;2024-01-07T00:15:28;4.07;;;3.67;;
11604;SDS011;5858;43.076;25.626;2024-01-07T00:17:55;7.57;;;3.60;;
11604;SDS011;5858;43.076;25.626;2024-01-07T00:20:22;7.03;;;4.00;;
11604;SDS011;5858;43.076;25.626;2024-01-07T00:22:50;5.87;;;4.13;;
11604;SDS011;5858;43.076;25.626;2024-01-07T00:25:17;7.93;;;4.13;;
11604;SDS011;5858;43.076;25.626;2024-01-07T00:27:44;5.07;;;3.77;;
11604;SDS011;5858;43.076;25.626;2024-01-07T00:30:13;8.23;;;4.63;;
11604;SDS011;5858;43.076;25.626;2024-01-07T00:32:40;7.33;;;4.57;;
11604;SDS011;5858;43.076;25.626;2024-01-07T00:35:07;6.83;;;4.03;;
11604;SDS011;5858;43.076;25.626;2024-01-07T00:37:34;5.90;;;4.10;;
11604;SDS011;5858;43.076;25.626;2024-01-07T00:40:05;6.27;;;4.40;;
11604;SDS011;5858;43.076;25.626;2024-01-07T00:42:32;5.37;;;4.33;;
11604;SDS011;5858;43.076;25.626;2024-01-07T00:45:00;5.23;;;3.97;;
11604;SDS011;5858;43.076;25.626;2024-01-07T00:47:27;7.67;;;4.17;;
11604;SDS011;5858;43.076;25.626;2024-01-07T00:49:53;8.67;;;4.70;;
11604;SDS011;5858;43.076;25.626;2024-01-07T00:52:21;10.70;;;5.07;;
11604;SDS011;5858;43.076;25.626;2024-01-07T00:54:48;6.73;;;4.40;;
11604;SDS011;5858;43.076;25.626;2024-01-07T00:57:17;6.43;;;4.23;;
11604;SDS011;5858;43.076;25.626;2024-01-07T00:59:44;5.77;;;4.53;;
11604;SDS011;5858;43.076;25.626;2024-01-07T01:02:11;8.77;;;5.07;;
11604;SDS011;5858;43.076;25.626;2024-01-07T01:04:38;6.17;;;4.47;;
11604;SDS011;5858;43.076;25.626;2024-01-07T01:07:07;6.33;;;4.40;;
11604;SDS011;5858;43.076;25.626;2024-01-07T01:09:35;6.50;;;4.60;;
11604;SDS011;5858;43.076;25.626;2024-01-07T01:12:05;6.40;;;4.53;;
11604;SDS011;5858;43.076;25.626;2024-01-07T01:14:34;7.07;;;4.50;;
11604;SDS011;5858;43.076;25.626;2024-01-07T01:17:01;5.93;;;3.77;;
11604;SDS011;5858;43.076;25.626;2024-01-07T01:19:28;7.30;;;4.23;;
11604;SDS011;5858;43.076;25.626;2024-01-07T01:21:55;4.43;;;4.03;;
11604;SDS011;5858;43.076;25.626;2024-01-07T01:24:22;4.17;;;3.50;;
11604;SDS011;5858;43.076;25.626;2024-01-07T01:26:49;6.93;;;4.07;;
11604;SDS011;5858;43.076;25.626;2024-01-07T01:29:16;6.37;;;4.00;;
11604;SDS011;5858;43.076;25.626;2024-01-07T01:31:45;5.33;;;3.50;;
11604;SDS011;5858;43.076;25.626;2024-01-07T01:34:12;5.37;;;3.63;;
11604;SDS011;5858;43.076;25.626;2024-01-07T01:36:39;5.00;;;3.50;;
11604;SDS011;5858;43.076;25.626;2024-01-07T01:39:06;2.50;;;2.30;;
11604;SDS011;5858;43.076;25.626;2024-01-07T01:41:33;4.53;;;2.50;;
11604;SDS011;5858;43.076;25.626;2024-01-07T01:44:00;3.40;;;2.10;;
11604;SDS011;5858;43.076;25.626;2024-01-07T01:46:28;5.87;;;2.37;;
11604;SDS011;5858;43.076;25.626;2024-01-07T01:48:59;5.77;;;2.40;;
11604;SDS011;5858;43.076;25.626;2024-01-07T01:51:27;2.50;;;2.27;;
11604;SDS011;5858;43.076;25.626;2024-01-07T01:53:54;3.80;;;2.40;;
11604;SDS011;5858;43.076;25.626;2024-01-07T01:56:22;3.70;;;2.33;;
11604;SDS011;5858;43.076;25.626;2024-01-07T01:58:54;3.33;;;2.20;;
11604;SDS011;5858;43.076;25.626;2024-01-07T02:01:22;4.50;;;2.50;;
11604;SDS011;5858;43.076;25.626;2024-01-07T02:03:49;3.33;;;2.00;;
11604;SDS011;5858;43.076;25.626;2024-01-07T02:06:19;3.20;;;2.03;;
11604;SDS011;5858;43.076;25.626;2024-01-07T02:08:47;4.17;;;1.90;;
11604;SDS011;5858;43.076;25.626;2024-01-07T02:11:15;4.20;;;1.70;;
11604;SDS011;5858;43.076;25.626;2024-01-07T02:13:43;5.30;;;1.53;;
11604;SDS011;5858;43.076;25.626;2024-01-07T02:16:14;1.53;;;1.00;;
11604;SDS011;5858;43.076;25.626;2024-01-07T02:18:42;1.10;;;0.90;;
11604;SDS011;5858;43.076;25.626;2024-01-07T02:21:11;1.60;;;0.83;;
11604;SDS011;5858;43.076;25.626;2024-01-07T02:23:41;1.23;;;0.80;;
11604;SDS011;5858;43.076;25.626;2024-01-07T02:26:10;0.77;;;0.70;;
11604;SDS011;5858;43.076;25.626;2024-01-07T02:28:39;0.97;;;0.60;;
11604;SDS011;5858;43.076;25.626;2024-01-07T02:31:06;2.47;;;0.50;;
11604;SDS011;5858;43.076;25.626;2024-01-07T02:33:33;1.03;;;0.67;;
11604;SDS011;5858;43.076;25.626;2024-01-07T02:36:00;0.40;;;0.40;;
11604;SDS011;5858;43.076;25.626;2024-01-07T02:38:27;0.50;;;0.50;;
11604;SDS011;5858;43.076;25.626;2024-01-07T02:40:54;0.77;;;0.40;;
11604;SDS011;5858;43.076;25.626;2024-01-07T02:43:22;1.63;;;0.77;;
11604;SDS011;5858;43.076;25.626;2024-01-07T02:45:49;1.73;;;0.60;;
11604;SDS011;5858;43.076;25.626;2024-01-07T02:48:16;2.87;;;0.80;;
11604;SDS011;5858;43.076;25.626;2024-01-07T02:50:44;1.63;;;1.17;;
11604;SDS011;5858;43.076;25.626;2024-01-07T02:53:12;1.73;;;0.70;;
11604;SDS011;5858;43.076;25.626;2024-01-07T02:55:39;1.83;;;0.87;;
11604;SDS011;5858;43.076;25.626;2024-01-07T02:58:06;1.33;;;0.87;;
11604;SDS011;5858;43.076;25.626;2024-01-07T03:00:35;0.97;;;0.80;;
11604;SDS011;5858;43.076;25.626;2024-01-07T03:03:01;1.80;;;1.10;;
11604;SDS011;5858;43.076;25.626;2024-01-07T03:05:29;1.30;;;1.10;;
11604;SDS011;5858;43.076;25.626;2024-01-07T03:07:57;1.13;;;0.50;;
11604;SDS011;5858;43.076;25.626;2024-01-07T03:10:25;2.03;;;0.80;;
11604;SDS011;5858;43.076;25.626;2024-01-07T03:13:03;1.43;;;0.70;;
11604;SDS011;5858;43.076;25.626;2024-01-07T03:15:32;1.30;;;0.70;;
11604;SDS011;5858;43.076;25.626;2024-01-07T03:18:00;2.73;;;0.80;;
11604;SDS011;5858;43.076;25.626;2024-01-07T03:20:28;0.60;;;0.53;;
11604;SDS011;5858;43.076;25.626;2024-01-07T03:22:55;1.03;;;0.50;;
11604;SDS011;5858;43.076;25.626;2024-01-07T03:25:23;0.83;;;0.47;;
11604;SDS011;5858;43.076;25.626;2024-01-07T03:27:50;0.77;;;0.60;;
11604;SDS011;5858;43.076;25.626;2024-01-07T03:30:17;1.57;;;0.90;;
11604;SDS011;5858;43.076;25.626;2024-01-07T03:32:48;2.17;;;1.57;;
11604;SDS011;5858;43.076;25.626;2024-01-07T03:35:26;3.57;;;0.80;;
11604;SDS011;5858;43.076;25.626;2024-01-07T03:38:02;1.97;;;0.80;;
11604;SDS011;5858;43.076;25.626;2024-01-07T03:40:29;0.97;;;0.50;;
11604;SDS011;5858;43.076;25.626;2024-01-07T03:43:04;1.70;;;0.80;;
11604;SDS011;5858;43.076;25.626;2024-01-07T03:45:33;3.97;;;0.77;;
11604;SDS011;5858;43.076;25.626;2024-01-07T03:48:01;0.70;;;0.53;;
11604;SDS011;5858;43.076;25.626;2024-01-07T03:50:30;1.30;;;0.80;;
11604;SDS011;5858;43.076;25.626;2024-01-07T03:53:01;0.60;;;0.50;;
11604;SDS011;5858;43.076;25.626;2024-01-07T03:55:29;0.63;;;0.60;;
11604;SDS011;5858;43.076;25.626;2024-01-07T03:57:58;1.80;;;0.60;;
11604;SDS011;5858;43.076;25.626;2024-01-07T04:00:25;2.23;;;0.70;;
11604;SDS011;5858;43.076;25.626;2024-01-07T04:02:54;0.70;;;0.60;;
11604;SDS011;5858;43.076;25.626;2024-01-07T04:05:23;0.70;;;0.70;;
11604;SDS011;5858;43.076;25.626;2024-01-07T04:07:52;0.50;;;0.50;;
11604;SDS011;5858;43.076;25.626;2024-01-07T04:10:22;1.03;;;0.53;;
11604;SDS011;5858;43.076;25.626;2024-01-07T04:12:53;1.17;;;0.80;;
11604;SDS011;5858;43.076;25.626;2024-01-07T04:15:26;1.27;;;0.60;;
11604;SDS011;5858;43.076;25.626;2024-01-07T04:18:01;1.80;;;0.60;;
11604;SDS011;5858;43.076;25.626;2024-01-07T04:20:31;1.37;;;1.07;;
11604;SDS011;5858;43.076;25.626;2024-01-07T04:23:17;1.27;;;1.17;;
11604;SDS011;5858;43.076;25.626;2024-01-07T04:25:45;2.80;;;1.50;;
11604;SDS011;5858;43.076;25.626;2024-01-07T04:28:14;2.57;;;1.57;;
11604;SDS011;5858;43.076;25.626;2024-01-07T04:30:43;2.63;;;1.90;;
11604;SDS011;5858;43.076;25.626;2024-01-07T04:33:10;2.07;;;1.50;;
11604;SDS011;5858;43.076;25.626;2024-01-07T04:35:41;1.97;;;1.40;;
11604;SDS011;5858;43.076;25.626;2024-01-07T04:38:11;1.93;;;1.57;;
11604;SDS011;5858;43.076;25.626;2024-01-07T04:40:45;1.77;;;1.50;;
11604;SDS011;5858;43.076;25.626;2024-01-07T04:43:39;1.77;;;1.67;;
11604;SDS011;5858;43.076;25.626;2024-01-07T04:46:20;2.43;;;2.10;;
11604;SDS011;5858;43.076;25.626;2024-01-07T04:48:48;2.03;;;1.70;;
11604;SDS011;5858;43.076;25.626;2024-01-07T04:51:15;4.13;;;1.80;;
11604;SDS011;5858;43.076;25.626;2024-01-07T04:53:43;2.40;;;1.80;;
11604;SDS011;5858;43.076;25.626;2024-01-07T04:56:11;3.30;;;2.00;;
11604;SDS011;5858;43.076;25.626;2024-01-07T04:58:39;1.80;;;1.70;;
11604;SDS011;5858;43.076;25.626;2024-01-07T05:01:10;4.13;;;1.80;;
11604;SDS011;5858;43.076;25.626;2024-01-07T05:03:43;5.13;;;2.13;;
11604;SDS011;5858;43.076;25.626;2024-01-07T05:06:14;1.97;;;1.83;;
11604;SDS011;5858;43.076;25.626;2024-01-07T05:08:43;5.70;;;2.30;;
11604;SDS011;5858;43.076;25.626;2024-01-07T05:11:10;4.50;;;1.90;;
11604;SDS011;5858;43.076;25.626;2024-01-07T05:13:44;2.80;;;2.00;;
11604;SDS011;5858;43.076;25.626;2024-01-07T05:16:21;4.47;;;1.77;;
11604;SDS011;5858;43.076;25.626;2024-01-07T05:18:55;3.47;;;1.77;;
11604;SDS011;5858;43.076;25.626;2024-01-07T05:21:28;3.27;;;1.97;;
11604;SDS011;5858;43.076;25.626;2024-01-07T05:27:03;2.53;;;1.63;;
11604;SDS011;5858;43.076;25.626;2024-01-07T05:29:34;2.40;;;1.50;;
11604;SDS011;5858;43.076;25.626;2024-01-07T05:32:03;2.50;;;1.47;;
11604;SDS011;5858;43.076;25.626;2024-01-07T05:34:32;3.27;;;1.50;;
11604;SDS011;5858;43.076;25.626;2024-01-07T05:37:03;1.43;;;1.20;;
11604;SDS011;5858;43.076;25.626;2024-01-07T05:39:32;4.40;;;1.43;;
11604;SDS011;5858;43.076;25.626;2024-01-07T05:42:04;2.40;;;1.30;;
11604;SDS011;5858;43.076;25.626;2024-01-07T05:44:33;3.20;;;0.97;;
11604;SDS011;5858;43.076;25.626;2024-01-07T05:47:01;1.40;;;1.00;;
11604;SDS011;5858;43.076;25.626;2024-01-07T05:49:30;0.80;;;0.80;;
11604;SDS011;5858;43.076;25.626;2024-01-07T05:51:58;2.97;;;1.07;;
11604;SDS011;5858;43.076;25.626;2024-01-07T05:54:25;0.97;;;0.97;;
11604;SDS011;5858;43.076;25.626;2024-01-07T05:56:52;2.30;;;1.13;;
11604;SDS011;5858;43.076;25.626;2024-01-07T05:59:21;1.10;;;0.77;;
11604;SDS011;5858;43.076;25.626;2024-01-07T06:01:49;2.20;;;1.00;;
11604;SDS011;5858;43.076;25.626;2024-01-07T06:04:24;1.03;;;0.90;;
11604;SDS011;5858;43.076;25.626;2024-01-07T06:07:11;2.00;;;1.00;;
11604;SDS011;5858;43.076;25.626;2024-01-07T06:09:42;1.97;;;1.20;;
11604;SDS011;5858;43.076;25.626;2024-01-07T06:12:17;1.93;;;1.00;;
11604;SDS011;5858;43.076;25.626;2024-01-07T06:17:56;2.50;;;1.00;;
11604;SDS011;5858;43.076;25.626;2024-01-07T06:20:42;2.10;;;1.20;;
11604;SDS011;5858;43.076;25.626;2024-01-07T06:23:34;1.90;;;1.20;;
11604;SDS011;5858;43.076;25.626;2024-01-07T06:26:41;1.07;;;0.93;;
11604;SDS011;5858;43.076;25.626;2024-01-07T08:21:08;2.80;;;0.87;;
11604;SDS011;5858;43.076;25.626;2024-01-07T08:26:29;4.13;;;1.27;;
11604;SDS011;5858;43.076;25.626;2024-01-07T08:29:05;3.53;;;1.13;;
11604;SDS011;5858;43.076;25.626;2024-01-07T08:38:22;2.63;;;0.90;;
11604;SDS011;5858;43.076;25.626;2024-01-07T08:40:58;3.30;;;1.00;;
11604;SDS011;5858;43.076;25.626;2024-01-07T08:43:30;3.93;;;1.10;;
11604;SDS011;5858;43.076;25.626;2024-01-07T08:46:03;2.93;;;1.03;;
11604;SDS011;5858;43.076;25.626;2024-01-07T08:48:49;2.87;;;1.20;;
11604;SDS011;5858;43.076;25.626;2024-01-07T08:51:30;1.43;;;1.10;;
11604;SDS011;5858;43.076;25.626;2024-01-07T09:07:36;4.70;;;1.70;;
11604;SDS011;5858;43.076;25.626;2024-01-07T09:10:18;3.50;;;1.20;;
11604;SDS011;5858;43.076;25.626;2024-01-07T09:13:40;3.80;;;1.33;;
11604;SDS011;5858;43.076;25.626;2024-01-07T09:16:16;7.20;;;1.20;;
11604;SDS011;5858;43.076;25.626;2024-01-07T09:18:48;3.03;;;1.10;;
11604;SDS011;5858;43.076;25.626;2024-01-07T09:21:25;3.33;;;1.27;;
11604;SDS011;5858;43.076;25.626;2024-01-07T09:37:12;6.10;;;1.60;;
11604;SDS011;5858;43.076;25.626;2024-01-07T09:40:08;3.63;;;1.77;;
11604;SDS011;5858;43.076;25.626;2024-01-07T09:43:00;6.63;;;1.43;;
11604;SDS011;5858;43.076;25.626;2024-01-07T09:46:37;5.10;;;1.43;;
11604;SDS011;5858;43.076;25.626;2024-01-07T09:49:31;9.93;;;1.60;;
11604;SDS011;5858;43.076;25.626;2024-01-07T09:52:21;5.67;;;1.50;;
11604;SDS011;5858;43.076;25.626;2024-01-07T09:55:14;3.63;;;1.33;;
11604;SDS011;5858;43.076;25.626;2024-01-07T10:00:44;6.50;;;1.47;;
11604;SDS011;5858;43.076;25.626;2024-01-07T10:03:23;5.13;;;1.50;;
11604;SDS011;5858;43.076;25.626;2024-01-07T10:06:07;4.43;;;1.70;;
11604;SDS011;5858;43.076;25.626;2024-01-07T10:08:49;4.97;;;1.43;;
11604;SDS011;5858;43.076;25.626;2024-01-07T10:34:57;6.13;;;2.50;;
11604;SDS011;5858;43.076;25.626;2024-01-07T10:37:34;4.93;;;1.70;;
11604;SDS011;5858;43.076;25.626;2024-01-07T10:44:13;8.97;;;2.43;;
11604;SDS011;5858;43.076;25.626;2024-01-07T12:32:15;6.83;;;1.47;;
11604;SDS011;5858;43.076;25.626;2024-01-07T12:34:59;5.43;;;1.77;;
11604;SDS011;5858;43.076;25.626;2024-01-07T12:41:34;4.80;;;1.37;;
11604;SDS011;5858;43.076;25.626;2024-01-07T13:15:34;7.40;;;2.27;;
11604;SDS011;5858;43.076;25.626;2024-01-07T13:21:31;10.27;;;2.63;;
11604;SDS011;5858;43.076;25.626;2024-01-07T13:25:00;10.20;;;2.90;;
11604;SDS011;5858;43.076;25.626;2024-01-07T13:27:37;9.87;;;1.63;;
11604;SDS011;5858;43.076;25.626;2024-01-07T13:46:07;7.53;;;2.17;;
11604;SDS011;5858;43.076;25.626;2024-01-07T13:48:48;10.43;;;3.20;;
11604;SDS011;5858;43.076;25.626;2024-01-07T14:14:31;10.43;;;2.90;;
11604;SDS011;5858;43.076;25.626;2024-01-07T16:11:40;11.87;;;8.73;;
11604;SDS011;5858;43.076;25.626;2024-01-07T17:07:44;12.83;;;10.80;;
11604;SDS011;5858;43.076;25.626;2024-01-07T17:14:26;14.37;;;9.40;;
11604;SDS011;5858;43.076;25.626;2024-01-07T17:29:32;12.83;;;9.90;;
11604;SDS011;5858;43.076;25.626;2024-01-07T17:33:32;12.20;;;10.07;;
